sensor_id;sensor_type;location;lat;lon;timestamp;P1;durP1;ratioP1;P2;durP2;ratioP2
56820;SDS011;42702;50.178;20.992;2022-08-19T00:00:08;14.10;;;10.40;;
56820;SDS011;42702;50.178;20.992;2022-08-19T00:02:58;12.50;;;10.40;;
56820;SDS011;42702;50.178;20.992;2022-08-19T00:05:26;13.20;;;9.70;;
56820;SDS011;42702;50.178;20.992;2022-08-19T00:13:04;15.60;;;9.90;;
56820;SDS011;42702;50.178;20.992;2022-08-19T00:15:33;15.80;;;10.10;;
56820;SDS011;42702;50.178;20.992;2022-08-19T00:18:01;15.60;;;10.90;;
56820;SDS011;42702;50.178;20.992;2022-08-19T00:20:29;15.30;;;11.40;;
56820;SDS011;42702;50.178;20.992;2022-08-19T00:22:57;12.50;;;10.50;;
56820;SDS011;42702;50.178;20.992;2022-08-19T00:25:26;12.00;;;10.80;;
56820;SDS011;42702;50.178;20.992;2022-08-19T00:27:57;12.10;;;10.10;;
56820;SDS011;42702;50.178;20.992;2022-08-19T00:30:27;11.20;;;9.70;;
56820;SDS011;42702;50.178;20.992;2022-08-19T00:32:56;11.20;;;9.90;;
56820;SDS011;42702;50.178;20.992;2022-08-19T00:35:25;12.70;;;10.10;;
56820;SDS011;42702;50.178;20.992;2022-08-19T00:37:55;12.70;;;10.40;;
56820;SDS011;42702;50.178;20.992;2022-08-19T00:40:24;12.00;;;10.10;;
56820;SDS011;42702;50.178;20.992;2022-08-19T00:42:52;12.40;;;10.30;;
56820;SDS011;42702;50.178;20.992;2022-08-19T00:45:22;15.70;;;10.30;;
56820;SDS011;42702;50.178;20.992;2022-08-19T00:47:53;16.10;;;10.70;;
56820;SDS011;42702;50.178;20.992;2022-08-19T00:50:21;12.70;;;10.40;;
56820;SDS011;42702;50.178;20.992;2022-08-19T00:52:50;16.60;;;10.90;;
56820;SDS011;42702;50.178;20.992;2022-08-19T00:55:21;13.50;;;10.20;;
56820;SDS011;42702;50.178;20.992;2022-08-19T01:00:26;12.20;;;10.00;;
56820;SDS011;42702;50.178;20.992;2022-08-19T01:02:56;13.30;;;10.60;;
56820;SDS011;42702;50.178;20.992;2022-08-19T01:05:25;15.80;;;10.40;;
56820;SDS011;42702;50.178;20.992;2022-08-19T01:07:56;13.60;;;9.60;;
56820;SDS011;42702;50.178;20.992;2022-08-19T01:10:29;12.50;;;10.40;;
56820;SDS011;42702;50.178;20.992;2022-08-19T01:13:03;12.80;;;10.80;;
56820;SDS011;42702;50.178;20.992;2022-08-19T01:15:33;14.00;;;10.10;;
56820;SDS011;42702;50.178;20.992;2022-08-19T01:18:07;11.00;;;9.80;;
56820;SDS011;42702;50.178;20.992;2022-08-19T01:20:38;11.20;;;9.50;;
56820;SDS011;42702;50.178;20.992;2022-08-19T01:23:08;11.60;;;10.30;;
56820;SDS011;42702;50.178;20.992;2022-08-19T01:25:47;15.30;;;10.30;;
56820;SDS011;42702;50.178;20.992;2022-08-19T01:28:23;12.00;;;10.40;;
56820;SDS011;42702;50.178;20.992;2022-08-19T01:31:00;13.30;;;11.10;;
56820;SDS011;42702;50.178;20.992;2022-08-19T01:33:34;13.70;;;10.40;;
56820;SDS011;42702;50.178;20.992;2022-08-19T01:36:26;14.90;;;10.30;;
56820;SDS011;42702;50.178;20.992;2022-08-19T01:38:54;11.20;;;10.00;;
56820;SDS011;42702;50.178;20.992;2022-08-19T01:41:23;12.20;;;10.00;;
56820;SDS011;42702;50.178;20.992;2022-08-19T01:43:52;16.20;;;9.90;;
56820;SDS011;42702;50.178;20.992;2022-08-19T01:46:41;11.40;;;10.00;;
56820;SDS011;42702;50.178;20.992;2022-08-19T01:49:11;11.20;;;9.60;;
56820;SDS011;42702;50.178;20.992;2022-08-19T01:51:39;12.70;;;10.80;;
56820;SDS011;42702;50.178;20.992;2022-08-19T01:54:08;12.30;;;10.10;;
56820;SDS011;42702;50.178;20.992;2022-08-19T01:56:38;13.80;;;11.10;;
56820;SDS011;42702;50.178;20.992;2022-08-19T01:59:13;13.80;;;11.20;;
56820;SDS011;42702;50.178;20.992;2022-08-19T02:01:45;11.80;;;10.60;;
56820;SDS011;42702;50.178;20.992;2022-08-19T02:04:13;12.20;;;9.20;;
56820;SDS011;42702;50.178;20.992;2022-08-19T02:06:42;12.50;;;10.40;;
56820;SDS011;42702;50.178;20.992;2022-08-19T02:09:10;12.80;;;10.90;;
56820;SDS011;42702;50.178;20.992;2022-08-19T02:11:38;13.30;;;10.00;;
56820;SDS011;42702;50.178;20.992;2022-08-19T02:14:07;14.90;;;11.00;;
56820;SDS011;42702;50.178;20.992;2022-08-19T02:16:36;13.90;;;10.80;;
56820;SDS011;42702;50.178;20.992;2022-08-19T02:19:06;15.90;;;10.50;;
56820;SDS011;42702;50.178;20.992;2022-08-19T02:21:34;12.00;;;10.10;;
56820;SDS011;42702;50.178;20.992;2022-08-19T02:24:03;11.20;;;9.90;;
56820;SDS011;42702;50.178;20.992;2022-08-19T02:26:32;13.70;;;10.50;;
56820;SDS011;42702;50.178;20.992;2022-08-19T02:29:01;16.60;;;10.90;;
56820;SDS011;42702;50.178;20.992;2022-08-19T02:31:29;13.70;;;9.80;;
56820;SDS011;42702;50.178;20.992;2022-08-19T02:33:57;13.20;;;10.40;;
56820;SDS011;42702;50.178;20.992;2022-08-19T02:36:26;11.70;;;10.40;;
56820;SDS011;42702;50.178;20.992;2022-08-19T02:39:14;14.60;;;11.10;;
56820;SDS011;42702;50.178;20.992;2022-08-19T02:41:42;17.70;;;10.70;;
56820;SDS011;42702;50.178;20.992;2022-08-19T02:44:11;11.10;;;9.90;;
56820;SDS011;42702;50.178;20.992;2022-08-19T02:46:59;13.30;;;10.70;;
56820;SDS011;42702;50.178;20.992;2022-08-19T02:49:39;13.50;;;10.50;;
56820;SDS011;42702;50.178;20.992;2022-08-19T02:52:07;12.30;;;9.60;;
56820;SDS011;42702;50.178;20.992;2022-08-19T02:54:35;12.60;;;10.00;;
56820;SDS011;42702;50.178;20.992;2022-08-19T02:57:04;14.10;;;10.60;;
56820;SDS011;42702;50.178;20.992;2022-08-19T02:59:33;13.60;;;11.10;;
56820;SDS011;42702;50.178;20.992;2022-08-19T03:02:02;12.40;;;10.20;;
56820;SDS011;42702;50.178;20.992;2022-08-19T03:04:30;14.30;;;10.00;;
56820;SDS011;42702;50.178;20.992;2022-08-19T03:06:59;13.30;;;9.90;;
56820;SDS011;42702;50.178;20.992;2022-08-19T03:09:37;12.00;;;10.20;;
56820;SDS011;42702;50.178;20.992;2022-08-19T03:12:06;12.30;;;10.20;;
56820;SDS011;42702;50.178;20.992;2022-08-19T03:14:34;14.10;;;10.10;;
56820;SDS011;42702;50.178;20.992;2022-08-19T03:17:03;12.80;;;10.60;;
56820;SDS011;42702;50.178;20.992;2022-08-19T03:19:32;14.40;;;10.40;;
56820;SDS011;42702;50.178;20.992;2022-08-19T03:22:00;11.20;;;9.60;;
56820;SDS011;42702;50.178;20.992;2022-08-19T03:24:28;13.30;;;9.90;;
56820;SDS011;42702;50.178;20.992;2022-08-19T03:26:56;13.40;;;10.20;;
56820;SDS011;42702;50.178;20.992;2022-08-19T03:29:26;12.70;;;9.90;;
56820;SDS011;42702;50.178;20.992;2022-08-19T03:32:02;14.00;;;10.30;;
56820;SDS011;42702;50.178;20.992;2022-08-19T03:34:33;13.30;;;9.70;;
56820;SDS011;42702;50.178;20.992;2022-08-19T03:37:07;12.70;;;10.40;;
56820;SDS011;42702;50.178;20.992;2022-08-19T03:39:40;11.20;;;9.80;;
56820;SDS011;42702;50.178;20.992;2022-08-19T03:42:09;14.40;;;10.40;;
56820;SDS011;42702;50.178;20.992;2022-08-19T03:44:58;12.30;;;9.60;;
56820;SDS011;42702;50.178;20.992;2022-08-19T03:47:27;12.20;;;9.80;;
56820;SDS011;42702;50.178;20.992;2022-08-19T03:49:55;13.80;;;10.30;;
56820;SDS011;42702;50.178;20.992;2022-08-19T03:52:23;12.30;;;10.40;;
56820;SDS011;42702;50.178;20.992;2022-08-19T03:54:51;14.60;;;10.40;;
56820;SDS011;42702;50.178;20.992;2022-08-19T03:57:19;14.50;;;11.30;;
56820;SDS011;42702;50.178;20.992;2022-08-19T03:59:58;13.00;;;10.40;;
56820;SDS011;42702;50.178;20.992;2022-08-19T04:05:27;13.00;;;10.00;;
56820;SDS011;42702;50.178;20.992;2022-08-19T04:07:56;13.60;;;10.10;;
56820;SDS011;42702;50.178;20.992;2022-08-19T04:10:27;12.60;;;9.80;;
56820;SDS011;42702;50.178;20.992;2022-08-19T04:12:55;11.20;;;9.70;;
56820;SDS011;42702;50.178;20.992;2022-08-19T04:15:23;13.80;;;10.50;;
56820;SDS011;42702;50.178;20.992;2022-08-19T04:17:52;15.60;;;10.00;;
56820;SDS011;42702;50.178;20.992;2022-08-19T04:20:20;11.70;;;10.30;;
56820;SDS011;42702;50.178;20.992;2022-08-19T04:22:49;12.40;;;9.90;;
56820;SDS011;42702;50.178;20.992;2022-08-19T04:25:17;12.40;;;9.20;;
56820;SDS011;42702;50.178;20.992;2022-08-19T04:27:45;14.10;;;10.10;;
56820;SDS011;42702;50.178;20.992;2022-08-19T04:30:14;11.20;;;10.10;;
56820;SDS011;42702;50.178;20.992;2022-08-19T04:32:42;12.90;;;10.20;;
56820;SDS011;42702;50.178;20.992;2022-08-19T04:35:11;14.00;;;9.70;;
56820;SDS011;42702;50.178;20.992;2022-08-19T04:37:44;11.50;;;9.40;;
56820;SDS011;42702;50.178;20.992;2022-08-19T04:40:12;11.50;;;9.30;;
56820;SDS011;42702;50.178;20.992;2022-08-19T04:42:59;11.90;;;9.20;;
56820;SDS011;42702;50.178;20.992;2022-08-19T04:45:28;13.70;;;9.90;;
56820;SDS011;42702;50.178;20.992;2022-08-19T04:48:06;10.60;;;9.50;;
56820;SDS011;42702;50.178;20.992;2022-08-19T04:50:54;13.10;;;10.10;;
56820;SDS011;42702;50.178;20.992;2022-08-19T04:53:28;16.70;;;10.20;;
56820;SDS011;42702;50.178;20.992;2022-08-19T04:56:08;14.40;;;9.80;;
56820;SDS011;42702;50.178;20.992;2022-08-19T04:58:39;10.50;;;9.40;;
56820;SDS011;42702;50.178;20.992;2022-08-19T05:01:13;11.80;;;10.10;;
56820;SDS011;42702;50.178;20.992;2022-08-19T05:03:45;12.00;;;9.10;;
56820;SDS011;42702;50.178;20.992;2022-08-19T05:06:14;11.60;;;9.00;;
56820;SDS011;42702;50.178;20.992;2022-08-19T05:08:44;10.90;;;9.70;;
56820;SDS011;42702;50.178;20.992;2022-08-19T05:11:15;13.40;;;10.00;;
56820;SDS011;42702;50.178;20.992;2022-08-19T05:13:53;10.60;;;9.50;;
56820;SDS011;42702;50.178;20.992;2022-08-19T05:16:22;12.30;;;10.30;;
56820;SDS011;42702;50.178;20.992;2022-08-19T05:18:52;11.50;;;9.40;;
56820;SDS011;42702;50.178;20.992;2022-08-19T05:21:40;10.90;;;9.10;;
56820;SDS011;42702;50.178;20.992;2022-08-19T05:24:28;10.50;;;9.00;;
56820;SDS011;42702;50.178;20.992;2022-08-19T05:26:57;14.30;;;9.40;;
56820;SDS011;42702;50.178;20.992;2022-08-19T05:29:26;10.60;;;9.20;;
56820;SDS011;42702;50.178;20.992;2022-08-19T05:32:04;11.00;;;9.60;;
56820;SDS011;42702;50.178;20.992;2022-08-19T05:34:32;12.20;;;9.60;;
56820;SDS011;42702;50.178;20.992;2022-08-19T05:37:01;13.30;;;9.90;;
56820;SDS011;42702;50.178;20.992;2022-08-19T05:39:33;12.20;;;9.80;;
56820;SDS011;42702;50.178;20.992;2022-08-19T05:42:04;11.40;;;9.50;;
56820;SDS011;42702;50.178;20.992;2022-08-19T05:44:36;11.30;;;9.50;;
56820;SDS011;42702;50.178;20.992;2022-08-19T05:47:07;10.20;;;8.90;;
56820;SDS011;42702;50.178;20.992;2022-08-19T05:49:36;13.80;;;9.70;;
56820;SDS011;42702;50.178;20.992;2022-08-19T05:52:05;21.00;;;9.40;;
56820;SDS011;42702;50.178;20.992;2022-08-19T05:54:39;13.30;;;9.40;;
56820;SDS011;42702;50.178;20.992;2022-08-19T05:57:09;11.30;;;8.90;;
56820;SDS011;42702;50.178;20.992;2022-08-19T05:59:39;10.70;;;8.70;;
56820;SDS011;42702;50.178;20.992;2022-08-19T06:02:08;15.00;;;9.80;;
56820;SDS011;42702;50.178;20.992;2022-08-19T06:04:36;9.90;;;8.70;;
56820;SDS011;42702;50.178;20.992;2022-08-19T06:07:05;12.50;;;9.40;;
56820;SDS011;42702;50.178;20.992;2022-08-19T06:09:40;10.90;;;8.60;;
56820;SDS011;42702;50.178;20.992;2022-08-19T06:12:28;12.00;;;8.90;;
56820;SDS011;42702;50.178;20.992;2022-08-19T06:15:05;11.50;;;8.60;;
56820;SDS011;42702;50.178;20.992;2022-08-19T06:17:38;10.00;;;8.90;;
56820;SDS011;42702;50.178;20.992;2022-08-19T06:20:08;12.00;;;8.70;;
56820;SDS011;42702;50.178;20.992;2022-08-19T06:22:40;12.70;;;9.30;;
56820;SDS011;42702;50.178;20.992;2022-08-19T06:25:12;11.30;;;9.40;;
56820;SDS011;42702;50.178;20.992;2022-08-19T06:27:41;13.70;;;9.30;;
56820;SDS011;42702;50.178;20.992;2022-08-19T06:30:30;9.30;;;8.30;;
56820;SDS011;42702;50.178;20.992;2022-08-19T06:32:58;13.60;;;9.50;;
56820;SDS011;42702;50.178;20.992;2022-08-19T06:35:27;12.70;;;8.40;;
56820;SDS011;42702;50.178;20.992;2022-08-19T06:37:56;11.50;;;9.20;;
56820;SDS011;42702;50.178;20.992;2022-08-19T06:40:25;10.40;;;8.70;;
56820;SDS011;42702;50.178;20.992;2022-08-19T06:42:54;11.70;;;8.70;;
56820;SDS011;42702;50.178;20.992;2022-08-19T06:45:27;9.50;;;8.50;;
56820;SDS011;42702;50.178;20.992;2022-08-19T06:48:02;14.00;;;9.10;;
56820;SDS011;42702;50.178;20.992;2022-08-19T06:50:30;10.90;;;8.60;;
56820;SDS011;42702;50.178;20.992;2022-08-19T06:52:58;10.40;;;9.00;;
56820;SDS011;42702;50.178;20.992;2022-08-19T06:55:31;10.20;;;9.20;;
56820;SDS011;42702;50.178;20.992;2022-08-19T06:58:03;11.20;;;9.00;;
56820;SDS011;42702;50.178;20.992;2022-08-19T07:00:32;10.30;;;8.60;;
56820;SDS011;42702;50.178;20.992;2022-08-19T07:03:01;9.70;;;8.70;;
56820;SDS011;42702;50.178;20.992;2022-08-19T07:05:41;10.80;;;8.90;;
56820;SDS011;42702;50.178;20.992;2022-08-19T07:08:12;11.30;;;8.70;;
56820;SDS011;42702;50.178;20.992;2022-08-19T07:10:45;12.50;;;8.80;;
56820;SDS011;42702;50.178;20.992;2022-08-19T07:13:13;16.90;;;9.70;;
56820;SDS011;42702;50.178;20.992;2022-08-19T07:15:42;17.80;;;11.90;;
56820;SDS011;42702;50.178;20.992;2022-08-19T07:18:10;11.70;;;10.10;;
56820;SDS011;42702;50.178;20.992;2022-08-19T07:20:39;12.40;;;8.70;;
56820;SDS011;42702;50.178;20.992;2022-08-19T07:23:09;12.80;;;9.70;;
56820;SDS011;42702;50.178;20.992;2022-08-19T07:25:43;13.30;;;8.90;;
56820;SDS011;42702;50.178;20.992;2022-08-19T07:28:19;12.70;;;9.20;;
56820;SDS011;42702;50.178;20.992;2022-08-19T07:30:52;10.30;;;8.80;;
56820;SDS011;42702;50.178;20.992;2022-08-19T07:33:22;11.10;;;8.90;;
56820;SDS011;42702;50.178;20.992;2022-08-19T07:35:54;9.70;;;8.70;;
56820;SDS011;42702;50.178;20.992;2022-08-19T07:38:23;10.70;;;9.30;;
56820;SDS011;42702;50.178;20.992;2022-08-19T07:40:51;10.90;;;8.20;;
56820;SDS011;42702;50.178;20.992;2022-08-19T07:43:20;9.50;;;8.50;;
56820;SDS011;42702;50.178;20.992;2022-08-19T07:46:01;10.80;;;8.40;;
56820;SDS011;42702;50.178;20.992;2022-08-19T07:48:29;9.10;;;8.20;;
56820;SDS011;42702;50.178;20.992;2022-08-19T07:50:59;10.50;;;9.00;;
56820;SDS011;42702;50.178;20.992;2022-08-19T07:53:32;12.20;;;8.80;;
56820;SDS011;42702;50.178;20.992;2022-08-19T07:56:06;11.00;;;8.60;;
56820;SDS011;42702;50.178;20.992;2022-08-19T07:58:36;12.00;;;8.50;;
56820;SDS011;42702;50.178;20.992;2022-08-19T08:01:06;11.90;;;8.70;;
56820;SDS011;42702;50.178;20.992;2022-08-19T08:03:37;10.20;;;8.70;;
56820;SDS011;42702;50.178;20.992;2022-08-19T08:06:26;10.40;;;9.00;;
56820;SDS011;42702;50.178;20.992;2022-08-19T08:09:15;10.30;;;9.20;;
56820;SDS011;42702;50.178;20.992;2022-08-19T08:11:52;13.50;;;8.70;;
56820;SDS011;42702;50.178;20.992;2022-08-19T08:14:24;10.00;;;8.50;;
56820;SDS011;42702;50.178;20.992;2022-08-19T08:16:56;11.60;;;8.60;;
56820;SDS011;42702;50.178;20.992;2022-08-19T08:19:26;13.00;;;8.80;;
56820;SDS011;42702;50.178;20.992;2022-08-19T08:21:56;11.80;;;8.50;;
56820;SDS011;42702;50.178;20.992;2022-08-19T08:24:26;11.20;;;8.80;;
56820;SDS011;42702;50.178;20.992;2022-08-19T08:26:58;10.90;;;8.20;;
56820;SDS011;42702;50.178;20.992;2022-08-19T08:29:28;9.60;;;8.60;;
56820;SDS011;42702;50.178;20.992;2022-08-19T08:32:02;11.90;;;8.90;;
56820;SDS011;42702;50.178;20.992;2022-08-19T08:34:42;14.50;;;8.50;;
56820;SDS011;42702;50.178;20.992;2022-08-19T08:37:10;13.30;;;8.90;;
56820;SDS011;42702;50.178;20.992;2022-08-19T08:39:42;11.00;;;8.60;;
56820;SDS011;42702;50.178;20.992;2022-08-19T08:42:20;12.70;;;9.40;;
56820;SDS011;42702;50.178;20.992;2022-08-19T08:44:58;14.80;;;9.60;;
56820;SDS011;42702;50.178;20.992;2022-08-19T08:47:43;10.10;;;9.10;;
56820;SDS011;42702;50.178;20.992;2022-08-19T08:50:18;11.20;;;9.30;;
56820;SDS011;42702;50.178;20.992;2022-08-19T08:52:53;10.40;;;9.30;;
56820;SDS011;42702;50.178;20.992;2022-08-19T08:55:26;10.70;;;8.60;;
56820;SDS011;42702;50.178;20.992;2022-08-19T08:58:05;9.90;;;8.90;;
56820;SDS011;42702;50.178;20.992;2022-08-19T09:00:38;12.10;;;9.00;;
56820;SDS011;42702;50.178;20.992;2022-08-19T09:03:15;11.10;;;9.10;;
56820;SDS011;42702;50.178;20.992;2022-08-19T09:11:28;11.20;;;10.00;;
56820;SDS011;42702;50.178;20.992;2022-08-19T09:17:18;10.90;;;9.40;;
56820;SDS011;42702;50.178;20.992;2022-08-19T09:22:20;10.30;;;9.20;;
56820;SDS011;42702;50.178;20.992;2022-08-19T09:24:54;10.50;;;9.20;;
56820;SDS011;42702;50.178;20.992;2022-08-19T09:27:23;11.90;;;9.20;;
56820;SDS011;42702;50.178;20.992;2022-08-19T09:30:14;11.30;;;9.10;;
56820;SDS011;42702;50.178;20.992;2022-08-19T09:32:54;10.20;;;9.10;;
56820;SDS011;42702;50.178;20.992;2022-08-19T09:35:24;12.40;;;9.20;;
56820;SDS011;42702;50.178;20.992;2022-08-19T09:37:55;10.10;;;8.90;;
56820;SDS011;42702;50.178;20.992;2022-08-19T09:40:27;10.00;;;8.80;;
56820;SDS011;42702;50.178;20.992;2022-08-19T09:42:56;10.20;;;9.30;;
56820;SDS011;42702;50.178;20.992;2022-08-19T09:45:37;9.80;;;8.60;;
56820;SDS011;42702;50.178;20.992;2022-08-19T09:48:06;9.50;;;8.50;;
56820;SDS011;42702;50.178;20.992;2022-08-19T09:50:38;9.60;;;8.70;;
56820;SDS011;42702;50.178;20.992;2022-08-19T09:53:19;11.50;;;8.90;;
56820;SDS011;42702;50.178;20.992;2022-08-19T09:55:54;11.30;;;8.90;;
56820;SDS011;42702;50.178;20.992;2022-08-19T09:58:23;10.00;;;9.00;;
56820;SDS011;42702;50.178;20.992;2022-08-19T10:00:56;12.20;;;9.20;;
56820;SDS011;42702;50.178;20.992;2022-08-19T10:03:26;13.10;;;9.20;;
56820;SDS011;42702;50.178;20.992;2022-08-19T10:05:58;11.10;;;9.40;;
56820;SDS011;42702;50.178;20.992;2022-08-19T10:08:31;10.90;;;9.30;;
56820;SDS011;42702;50.178;20.992;2022-08-19T10:11:02;9.90;;;8.60;;
56820;SDS011;42702;50.178;20.992;2022-08-19T10:13:52;11.10;;;8.80;;
56820;SDS011;42702;50.178;20.992;2022-08-19T10:16:21;10.10;;;8.70;;
56820;SDS011;42702;50.178;20.992;2022-08-19T10:18:53;9.60;;;8.70;;
56820;SDS011;42702;50.178;20.992;2022-08-19T10:21:27;10.20;;;8.80;;
56820;SDS011;42702;50.178;20.992;2022-08-19T10:23:59;9.40;;;8.40;;
56820;SDS011;42702;50.178;20.992;2022-08-19T10:26:35;10.00;;;9.00;;
56820;SDS011;42702;50.178;20.992;2022-08-19T10:29:05;9.40;;;8.40;;
56820;SDS011;42702;50.178;20.992;2022-08-19T10:31:36;9.30;;;8.40;;
56820;SDS011;42702;50.178;20.992;2022-08-19T10:34:24;11.30;;;8.50;;
56820;SDS011;42702;50.178;20.992;2022-08-19T10:36:55;14.30;;;8.90;;
56820;SDS011;42702;50.178;20.992;2022-08-19T10:39:29;11.10;;;9.40;;
56820;SDS011;42702;50.178;20.992;2022-08-19T10:42:10;9.70;;;8.80;;
56820;SDS011;42702;50.178;20.992;2022-08-19T10:44:41;9.20;;;8.20;;
56820;SDS011;42702;50.178;20.992;2022-08-19T10:47:10;13.10;;;9.20;;
56820;SDS011;42702;50.178;20.992;2022-08-19T10:49:51;10.00;;;8.50;;
56820;SDS011;42702;50.178;20.992;2022-08-19T10:52:40;11.20;;;8.10;;
56820;SDS011;42702;50.178;20.992;2022-08-19T10:55:20;10.50;;;8.60;;
56820;SDS011;42702;50.178;20.992;2022-08-19T10:58:17;9.70;;;8.00;;
56820;SDS011;42702;50.178;20.992;2022-08-19T11:00:54;11.00;;;8.60;;
56820;SDS011;42702;50.178;20.992;2022-08-19T11:03:25;10.00;;;9.00;;
56820;SDS011;42702;50.178;20.992;2022-08-19T11:06:06;10.70;;;8.00;;
56820;SDS011;42702;50.178;20.992;2022-08-19T11:08:36;10.60;;;8.30;;
56820;SDS011;42702;50.178;20.992;2022-08-19T11:11:06;11.90;;;8.00;;
56820;SDS011;42702;50.178;20.992;2022-08-19T11:13:36;9.00;;;8.00;;
56820;SDS011;42702;50.178;20.992;2022-08-19T11:16:08;9.40;;;8.50;;
56820;SDS011;42702;50.178;20.992;2022-08-19T11:18:42;10.60;;;8.20;;
56820;SDS011;42702;50.178;20.992;2022-08-19T11:21:37;9.80;;;8.80;;
56820;SDS011;42702;50.178;20.992;2022-08-19T11:24:08;12.70;;;9.50;;
56820;SDS011;42702;50.178;20.992;2022-08-19T11:26:43;9.50;;;8.50;;
56820;SDS011;42702;50.178;20.992;2022-08-19T11:29:12;12.10;;;9.30;;
56820;SDS011;42702;50.178;20.992;2022-08-19T11:31:41;13.60;;;9.80;;
56820;SDS011;42702;50.178;20.992;2022-08-19T11:34:13;10.10;;;9.10;;
56820;SDS011;42702;50.178;20.992;2022-08-19T11:36:49;10.90;;;8.60;;
56820;SDS011;42702;50.178;20.992;2022-08-19T11:39:21;9.00;;;8.10;;
56820;SDS011;42702;50.178;20.992;2022-08-19T11:41:49;9.80;;;8.20;;
56820;SDS011;42702;50.178;20.992;2022-08-19T11:44:18;9.70;;;8.00;;
56820;SDS011;42702;50.178;20.992;2022-08-19T11:46:46;9.60;;;8.40;;
56820;SDS011;42702;50.178;20.992;2022-08-19T11:49:15;8.80;;;8.00;;
56820;SDS011;42702;50.178;20.992;2022-08-19T11:54:16;8.70;;;7.80;;
56820;SDS011;42702;50.178;20.992;2022-08-19T11:56:45;9.50;;;8.60;;
56820;SDS011;42702;50.178;20.992;2022-08-19T11:59:13;12.50;;;7.40;;
56820;SDS011;42702;50.178;20.992;2022-08-19T12:01:42;9.40;;;7.90;;
56820;SDS011;42702;50.178;20.992;2022-08-19T12:04:11;10.20;;;7.80;;
56820;SDS011;42702;50.178;20.992;2022-08-19T12:06:40;9.00;;;8.00;;
56820;SDS011;42702;50.178;20.992;2022-08-19T12:09:09;9.30;;;8.30;;
56820;SDS011;42702;50.178;20.992;2022-08-19T12:11:38;11.30;;;8.10;;
56820;SDS011;42702;50.178;20.992;2022-08-19T12:14:11;10.80;;;8.50;;
56820;SDS011;42702;50.178;20.992;2022-08-19T12:16:44;9.80;;;8.30;;
56820;SDS011;42702;50.178;20.992;2022-08-19T12:19:19;10.50;;;7.60;;
56820;SDS011;42702;50.178;20.992;2022-08-19T12:21:49;9.40;;;8.50;;
56820;SDS011;42702;50.178;20.992;2022-08-19T12:24:18;8.50;;;7.60;;
56820;SDS011;42702;50.178;20.992;2022-08-19T12:26:51;8.90;;;7.90;;
56820;SDS011;42702;50.178;20.992;2022-08-19T12:29:21;8.70;;;7.80;;
56820;SDS011;42702;50.178;20.992;2022-08-19T12:31:58;12.10;;;8.10;;
56820;SDS011;42702;50.178;20.992;2022-08-19T12:34:28;9.70;;;8.30;;
56820;SDS011;42702;50.178;20.992;2022-08-19T12:36:58;10.50;;;8.00;;
56820;SDS011;42702;50.178;20.992;2022-08-19T12:39:36;9.20;;;7.50;;
56820;SDS011;42702;50.178;20.992;2022-08-19T12:42:06;8.90;;;7.50;;
56820;SDS011;42702;50.178;20.992;2022-08-19T12:44:37;9.40;;;8.00;;
56820;SDS011;42702;50.178;20.992;2022-08-19T12:47:09;9.60;;;7.50;;
56820;SDS011;42702;50.178;20.992;2022-08-19T12:49:40;8.60;;;7.60;;
56820;SDS011;42702;50.178;20.992;2022-08-19T12:52:23;10.30;;;8.40;;
56820;SDS011;42702;50.178;20.992;2022-08-19T12:54:55;9.60;;;8.10;;
56820;SDS011;42702;50.178;20.992;2022-08-19T12:57:26;9.30;;;7.60;;
56820;SDS011;42702;50.178;20.992;2022-08-19T13:00:04;8.30;;;7.50;;
56820;SDS011;42702;50.178;20.992;2022-08-19T13:05:16;8.60;;;7.00;;
56820;SDS011;42702;50.178;20.992;2022-08-19T13:07:51;11.40;;;7.20;;
56820;SDS011;42702;50.178;20.992;2022-08-19T13:10:24;9.00;;;7.50;;
56820;SDS011;42702;50.178;20.992;2022-08-19T13:12:56;9.00;;;7.90;;
56820;SDS011;42702;50.178;20.992;2022-08-19T13:15:27;10.00;;;7.60;;
56820;SDS011;42702;50.178;20.992;2022-08-19T13:17:58;10.30;;;7.80;;
56820;SDS011;42702;50.178;20.992;2022-08-19T13:20:27;7.90;;;7.10;;
56820;SDS011;42702;50.178;20.992;2022-08-19T13:22:55;8.50;;;7.70;;
56820;SDS011;42702;50.178;20.992;2022-08-19T13:25:25;11.30;;;7.70;;
56820;SDS011;42702;50.178;20.992;2022-08-19T13:27:54;8.40;;;7.60;;
56820;SDS011;42702;50.178;20.992;2022-08-19T13:30:23;10.20;;;7.40;;
56820;SDS011;42702;50.178;20.992;2022-08-19T13:33:10;8.50;;;7.70;;
56820;SDS011;42702;50.178;20.992;2022-08-19T13:35:39;9.70;;;8.30;;
56820;SDS011;42702;50.178;20.992;2022-08-19T13:38:11;8.30;;;7.30;;
56820;SDS011;42702;50.178;20.992;2022-08-19T13:40:40;10.80;;;8.00;;
56820;SDS011;42702;50.178;20.992;2022-08-19T13:43:09;10.00;;;7.50;;
56820;SDS011;42702;50.178;20.992;2022-08-19T13:45:50;8.80;;;7.70;;
56820;SDS011;42702;50.178;20.992;2022-08-19T13:48:23;8.20;;;7.00;;
56820;SDS011;42702;50.178;20.992;2022-08-19T13:50:55;8.80;;;7.90;;
56820;SDS011;42702;50.178;20.992;2022-08-19T13:53:23;8.70;;;7.50;;
56820;SDS011;42702;50.178;20.992;2022-08-19T13:55:52;10.60;;;8.80;;
56820;SDS011;42702;50.178;20.992;2022-08-19T13:58:22;8.70;;;7.80;;
56820;SDS011;42702;50.178;20.992;2022-08-19T14:00:50;12.10;;;8.30;;
56820;SDS011;42702;50.178;20.992;2022-08-19T14:03:19;9.40;;;7.70;;
56820;SDS011;42702;50.178;20.992;2022-08-19T14:05:47;9.80;;;7.90;;
56820;SDS011;42702;50.178;20.992;2022-08-19T14:08:16;10.70;;;8.00;;
56820;SDS011;42702;50.178;20.992;2022-08-19T14:10:45;10.20;;;7.90;;
56820;SDS011;42702;50.178;20.992;2022-08-19T14:13:15;8.80;;;7.70;;
56820;SDS011;42702;50.178;20.992;2022-08-19T14:18:14;9.30;;;7.40;;
56820;SDS011;42702;50.178;20.992;2022-08-19T14:20:43;9.00;;;7.90;;
56820;SDS011;42702;50.178;20.992;2022-08-19T14:23:12;9.20;;;7.70;;
56820;SDS011;42702;50.178;20.992;2022-08-19T14:25:41;9.40;;;7.70;;
56820;SDS011;42702;50.178;20.992;2022-08-19T14:28:10;8.40;;;7.50;;
56820;SDS011;42702;50.178;20.992;2022-08-19T14:30:38;8.90;;;7.40;;
56820;SDS011;42702;50.178;20.992;2022-08-19T14:33:06;9.60;;;7.90;;
56820;SDS011;42702;50.178;20.992;2022-08-19T14:35:36;8.90;;;7.80;;
56820;SDS011;42702;50.178;20.992;2022-08-19T14:38:05;8.60;;;7.70;;
56820;SDS011;42702;50.178;20.992;2022-08-19T14:40:42;10.00;;;7.70;;
56820;SDS011;42702;50.178;20.992;2022-08-19T14:43:10;10.10;;;7.30;;
56820;SDS011;42702;50.178;20.992;2022-08-19T14:45:39;9.50;;;7.70;;
56820;SDS011;42702;50.178;20.992;2022-08-19T14:48:08;16.50;;;8.00;;
56820;SDS011;42702;50.178;20.992;2022-08-19T14:50:46;10.50;;;7.90;;
56820;SDS011;42702;50.178;20.992;2022-08-19T14:53:15;11.20;;;7.50;;
56820;SDS011;42702;50.178;20.992;2022-08-19T14:55:44;10.90;;;8.30;;
56820;SDS011;42702;50.178;20.992;2022-08-19T14:58:14;9.80;;;7.80;;
56820;SDS011;42702;50.178;20.992;2022-08-19T15:03:28;8.20;;;7.00;;
56820;SDS011;42702;50.178;20.992;2022-08-19T15:05:59;11.00;;;8.10;;
56820;SDS011;42702;50.178;20.992;2022-08-19T15:08:30;10.20;;;7.70;;
56820;SDS011;42702;50.178;20.992;2022-08-19T15:11:01;8.60;;;7.70;;
56820;SDS011;42702;50.178;20.992;2022-08-19T15:13:30;8.60;;;7.70;;
56820;SDS011;42702;50.178;20.992;2022-08-19T15:16:10;9.80;;;7.40;;
56820;SDS011;42702;50.178;20.992;2022-08-19T15:18:45;9.30;;;7.50;;
56820;SDS011;42702;50.178;20.992;2022-08-19T15:21:17;10.00;;;7.90;;